sensor_id;sensor_type;location;lat;lon;timestamp;pressure;altitude;pressure_sealevel;temperature;humidity
12195;BME280;27023;42.680;23.132;2022-12-07T00:01:36;92050.63;;;5.95;100.00
12195;BME280;27023;42.680;23.132;2022-12-07T00:04:05;92058.94;;;5.97;100.00
12195;BME280;27023;42.680;23.132;2022-12-07T00:06:33;92050.72;;;5.69;100.00
12195;BME280;27023;42.680;23.132;2022-12-07T00:09:00;92048.31;;;5.85;100.00
12195;BME280;27023;42.680;23.132;2022-12-07T00:11:27;92045.69;;;5.94;100.00
12195;BME280;27023;42.680;23.132;2022-12-07T00:13:56;92046.66;;;5.81;100.00
12195;BME280;27023;42.680;23.132;2022-12-07T00:16:26;92048.16;;;5.90;100.00
12195;BME280;27023;42.680;23.132;2022-12-07T00:18:53;92037.88;;;6.15;100.00
12195;BME280;27023;42.680;23.132;2022-12-07T00:21:21;92035.53;;;6.22;100.00
12195;BME280;27023;42.680;23.132;2022-12-07T00:23:50;92035.84;;;6.41;100.00
12195;BME280;27023;42.680;23.132;2022-12-07T00:26:20;92041.59;;;6.34;100.00
12195;BME280;27023;42.680;23.132;2022-12-07T00:28:47;92038.88;;;6.64;100.00
12195;BME280;27023;42.680;23.132;2022-12-07T00:31:19;92041.03;;;6.83;100.00
12195;BME280;27023;42.680;23.132;2022-12-07T00:33:46;92048.47;;;6.81;100.00
12195;BME280;27023;42.680;23.132;2022-12-07T00:36:15;92045.88;;;6.93;100.00
12195;BME280;27023;42.680;23.132;2022-12-07T00:38:42;92053.72;;;6.93;100.00
12195;BME280;27023;42.680;23.132;2022-12-07T00:41:10;92051.53;;;6.62;100.00
12195;BME280;27023;42.680;23.132;2022-12-07T00:43:38;92055.13;;;6.16;100.00
12195;BME280;27023;42.680;23.132;2022-12-07T00:46:05;92052.69;;;6.11;100.00
12195;BME280;27023;42.680;23.132;2022-12-07T00:48:33;92044.16;;;5.93;100.00
12195;BME280;27023;42.680;23.132;2022-12-07T00:51:00;92043.50;;;6.04;100.00
12195;BME280;27023;42.680;23.132;2022-12-07T00:53:28;92046.78;;;5.84;100.00
12195;BME280;27023;42.680;23.132;2022-12-07T00:55:54;92045.94;;;5.71;100.00
12195;BME280;27023;42.680;23.132;2022-12-07T00:58:22;92051.53;;;5.99;100.00
12195;BME280;27023;42.680;23.132;2022-12-07T01:00:49;92053.91;;;6.13;100.00
12195;BME280;27023;42.680;23.132;2022-12-07T01:03:16;92043.22;;;5.89;100.00
12195;BME280;27023;42.680;23.132;2022-12-07T01:05:51;92034.69;;;6.09;100.00
12195;BME280;27023;42.680;23.132;2022-12-07T01:08:18;92041.44;;;6.10;100.00
12195;BME280;27023;42.680;23.132;2022-12-07T01:10:44;92043.81;;;6.03;100.00
12195;BME280;27023;42.680;23.132;2022-12-07T01:13:11;92032.25;;;6.04;100.00
12195;BME280;27023;42.680;23.132;2022-12-07T01:15:39;92046.28;;;5.99;100.00
12195;BME280;27023;42.680;23.132;2022-12-07T01:18:05;92041.63;;;6.05;100.00
12195;BME280;27023;42.680;23.132;2022-12-07T01:20:32;92045.41;;;5.95;100.00
12195;BME280;27023;42.680;23.132;2022-12-07T01:23:00;92039.84;;;5.88;100.00
12195;BME280;27023;42.680;23.132;2022-12-07T01:25:27;92034.34;;;5.81;100.00
12195;BME280;27023;42.680;23.132;2022-12-07T01:27:54;92030.81;;;5.77;100.00
12195;BME280;27023;42.680;23.132;2022-12-07T01:30:20;92027.13;;;5.78;100.00
12195;BME280;27023;42.680;23.132;2022-12-07T01:32:47;92023.84;;;5.31;100.00
12195;BME280;27023;42.680;23.132;2022-12-07T01:35:14;92028.66;;;5.50;100.00
12195;BME280;27023;42.680;23.132;2022-12-07T01:37:41;92023.78;;;5.39;100.00
12195;BME280;27023;42.680;23.132;2022-12-07T01:40:10;92019.50;;;5.35;100.00
12195;BME280;27023;42.680;23.132;2022-12-07T01:42:36;92023.66;;;5.36;100.00
12195;BME280;27023;42.680;23.132;2022-12-07T01:48:04;92029.38;;;5.29;100.00
12195;BME280;27023;42.680;23.132;2022-12-07T01:50:31;92025.69;;;5.30;100.00
12195;BME280;27023;42.680;23.132;2022-12-07T01:52:59;92019.50;;;5.35;100.00
12195;BME280;27023;42.680;23.132;2022-12-07T01:55:29;92011.34;;;5.36;100.00
12195;BME280;27023;42.680;23.132;2022-12-07T01:57:57;92009.81;;;5.35;100.00
12195;BME280;27023;42.680;23.132;2022-12-07T02:00:23;92012.13;;;5.37;100.00
12195;BME280;27023;42.680;23.132;2022-12-07T02:02:53;92001.28;;;5.09;100.00
12195;BME280;27023;42.680;23.132;2022-12-07T02:05:22;92009.56;;;5.28;100.00
12195;BME280;27023;42.680;23.132;2022-12-07T02:07:51;92003.88;;;5.26;100.00
12195;BME280;27023;42.680;23.132;2022-12-07T02:10:22;92004.50;;;5.23;100.00
12195;BME280;27023;42.680;23.132;2022-12-07T02:12:53;92016.94;;;5.18;100.00
12195;BME280;27023;42.680;23.132;2022-12-07T02:15:26;92023.25;;;5.17;100.00
12195;BME280;27023;42.680;23.132;2022-12-07T02:18:00;92012.44;;;4.89;100.00
12195;BME280;27023;42.680;23.132;2022-12-07T02:20:34;92012.06;;;5.07;100.00
12195;BME280;27023;42.680;23.132;2022-12-07T02:23:36;92011.69;;;4.79;100.00
12195;BME280;27023;42.680;23.132;2022-12-07T02:29:14;92001.41;;;5.30;100.00
12195;BME280;27023;42.680;23.132;2022-12-07T02:31:46;91998.56;;;5.43;100.00
12195;BME280;27023;42.680;23.132;2022-12-07T02:34:22;91989.91;;;5.52;100.00
12195;BME280;27023;42.680;23.132;2022-12-07T02:36:55;91994.19;;;5.56;100.00
12195;BME280;27023;42.680;23.132;2022-12-07T02:39:30;92000.38;;;5.52;100.00
12195;BME280;27023;42.680;23.132;2022-12-07T02:42:03;92005.50;;;5.69;100.00
12195;BME280;27023;42.680;23.132;2022-12-07T02:44:36;91994.84;;;5.74;100.00
12195;BME280;27023;42.680;23.132;2022-12-07T02:47:05;91984.97;;;5.80;100.00
12195;BME280;27023;42.680;23.132;2022-12-07T02:49:33;91981.38;;;5.63;100.00
12195;BME280;27023;42.680;23.132;2022-12-07T02:52:00;91965.75;;;5.55;100.00
12195;BME280;27023;42.680;23.132;2022-12-07T02:54:27;91966.13;;;5.45;100.00
12195;BME280;27023;42.680;23.132;2022-12-07T02:57:00;91972.50;;;5.26;100.00
12195;BME280;27023;42.680;23.132;2022-12-07T02:59:36;91975.03;;;5.43;100.00
12195;BME280;27023;42.680;23.132;2022-12-07T03:02:18;91976.31;;;5.37;100.00
12195;BME280;27023;42.680;23.132;2022-12-07T03:04:54;91977.47;;;5.49;100.00
12195;BME280;27023;42.680;23.132;2022-12-07T03:07:33;91977.16;;;5.50;100.00
12195;BME280;27023;42.680;23.132;2022-12-07T03:10:07;91979.19;;;5.45;100.00
12195;BME280;27023;42.680;23.132;2022-12-07T03:12:41;91987.84;;;5.36;100.00
12195;BME280;27023;42.680;23.132;2022-12-07T03:15:14;91983.25;;;5.33;100.00
12195;BME280;27023;42.680;23.132;2022-12-07T03:17:46;91992.28;;;5.36;100.00
12195;BME280;27023;42.680;23.132;2022-12-07T03:20:17;91989.63;;;5.45;100.00
12195;BME280;27023;42.680;23.132;2022-12-07T03:22:47;91994.22;;;5.48;100.00
12195;BME280;27023;42.680;23.132;2022-12-07T03:25:15;91994.66;;;5.20;100.00
12195;BME280;27023;42.680;23.132;2022-12-07T03:27:46;91981.53;;;5.37;100.00
12195;BME280;27023;42.680;23.132;2022-12-07T03:30:20;91979.31;;;5.48;100.00
12195;BME280;27023;42.680;23.132;2022-12-07T03:32:50;91975.75;;;5.53;100.00
12195;BME280;27023;42.680;23.132;2022-12-07T03:35:24;91976.78;;;5.60;100.00
12195;BME280;27023;42.680;23.132;2022-12-07T03:37:55;91975.38;;;5.63;100.00
12195;BME280;27023;42.680;23.132;2022-12-07T03:40:28;91975.19;;;5.68;100.00
12195;BME280;27023;42.680;23.132;2022-12-07T03:42:57;91979.13;;;5.53;100.00
12195;BME280;27023;42.680;23.132;2022-12-07T03:45:31;91978.41;;;5.44;100.00
12195;BME280;27023;42.680;23.132;2022-12-07T03:48:05;91979.19;;;5.45;100.00
12195;BME280;27023;42.680;23.132;2022-12-07T03:50:40;91968.59;;;5.41;100.00
12195;BME280;27023;42.680;23.132;2022-12-07T03:53:12;91974.09;;;5.48;100.00
12195;BME280;27023;42.680;23.132;2022-12-07T03:55:42;91970.66;;;5.56;100.00
12195;BME280;27023;42.680;23.132;2022-12-07T03:58:12;91971.69;;;5.64;100.00
12195;BME280;27023;42.680;23.132;2022-12-07T04:00:42;91959.69;;;5.63;100.00
12195;BME280;27023;42.680;23.132;2022-12-07T04:03:10;91959.03;;;5.45;100.00
12195;BME280;27023;42.680;23.132;2022-12-07T04:05:37;91962.63;;;5.61;100.00
12195;BME280;27023;42.680;23.132;2022-12-07T04:08:05;91977.38;;;5.66;100.00
12195;BME280;27023;42.680;23.132;2022-12-07T04:10:31;91976.31;;;5.37;100.00
12195;BME280;27023;42.680;23.132;2022-12-07T04:12:58;91976.97;;;5.26;100.00
12195;BME280;27023;42.680;23.132;2022-12-07T04:15:25;91977.78;;;5.09;100.00
12195;BME280;27023;42.680;23.132;2022-12-07T04:17:53;91977.28;;;5.16;100.00
12195;BME280;27023;42.680;23.132;2022-12-07T04:20:20;91976.03;;;5.30;100.00
12195;BME280;27023;42.680;23.132;2022-12-07T04:22:47;91975.47;;;5.46;100.00
12195;BME280;27023;42.680;23.132;2022-12-07T04:25:16;91988.28;;;5.68;100.00
12195;BME280;27023;42.680;23.132;2022-12-07T04:27:44;91979.22;;;5.65;100.00
12195;BME280;27023;42.680;23.132;2022-12-07T04:30:11;91975.13;;;5.56;100.00
12195;BME280;27023;42.680;23.132;2022-12-07T04:32:38;91981.75;;;5.53;100.00
12195;BME280;27023;42.680;23.132;2022-12-07T04:35:07;91981.56;;;5.29;100.00
12195;BME280;27023;42.680;23.132;2022-12-07T04:37:35;91974.63;;;5.62;100.00
12195;BME280;27023;42.680;23.132;2022-12-07T04:40:06;91973.28;;;5.77;100.00
12195;BME280;27023;42.680;23.132;2022-12-07T04:42:33;91969.03;;;6.02;100.00
12195;BME280;27023;42.680;23.132;2022-12-07T04:45:00;91968.94;;;6.11;100.00
12195;BME280;27023;42.680;23.132;2022-12-07T04:47:27;91975.72;;;5.82;100.00
12195;BME280;27023;42.680;23.132;2022-12-07T04:49:54;91976.75;;;5.98;100.00
12195;BME280;27023;42.680;23.132;2022-12-07T04:52:22;91977.06;;;5.88;100.00
12195;BME280;27023;42.680;23.132;2022-12-07T04:54:48;91979.22;;;5.95;100.00
12195;BME280;27023;42.680;23.132;2022-12-07T04:57:15;91978.28;;;5.99;100.00
12195;BME280;27023;42.680;23.132;2022-12-07T04:59:42;91981.97;;;5.98;100.00
12195;BME280;27023;42.680;23.132;2022-12-07T05:02:08;91982.13;;;5.93;100.00
12195;BME280;27023;42.680;23.132;2022-12-07T05:04:35;91978.53;;;5.77;100.00
12195;BME280;27023;42.680;23.132;2022-12-07T05:07:02;91985.22;;;5.87;100.00
12195;BME280;27023;42.680;23.132;2022-12-07T05:09:30;91980.16;;;5.90;100.00
12195;BME280;27023;42.680;23.132;2022-12-07T05:11:56;91979.69;;;5.97;100.00
12195;BME280;27023;42.680;23.132;2022-12-07T05:14:23;91977.81;;;5.68;100.00
12195;BME280;27023;42.680;23.132;2022-12-07T05:16:50;91975.28;;;5.80;100.00
12195;BME280;27023;42.680;23.132;2022-12-07T05:19:19;91975.41;;;5.84;100.00
12195;BME280;27023;42.680;23.132;2022-12-07T05:21:46;91969.66;;;5.69;100.00
12195;BME280;27023;42.680;23.132;2022-12-07T05:24:15;91964.78;;;5.59;100.00
12195;BME280;27023;42.680;23.132;2022-12-07T05:26:43;91971.81;;;5.67;100.00
12195;BME280;27023;42.680;23.132;2022-12-07T05:29:11;91957.91;;;5.55;100.00
12195;BME280;27023;42.680;23.132;2022-12-07T05:31:38;91966.06;;;5.53;100.00
12195;BME280;27023;42.680;23.132;2022-12-07T05:34:05;91974.81;;;5.28;100.00
12195;BME280;27023;42.680;23.132;2022-12-07T05:36:32;91972.66;;;5.30;100.00
12195;BME280;27023;42.680;23.132;2022-12-07T05:38:59;91974.94;;;5.31;100.00
12195;BME280;27023;42.680;23.132;2022-12-07T05:41:26;91967.91;;;5.23;100.00
12195;BME280;27023;42.680;23.132;2022-12-07T05:44:11;91970.81;;;5.30;100.00
12195;BME280;27023;42.680;23.132;2022-12-07T05:46:38;91962.97;;;5.30;100.00
12195;BME280;27023;42.680;23.132;2022-12-07T05:49:04;91956.66;;;5.31;100.00
12195;BME280;27023;42.680;23.132;2022-12-07T05:51:31;91959.09;;;5.36;100.00
12195;BME280;27023;42.680;23.132;2022-12-07T05:53:58;91959.13;;;5.28;100.00
12195;BME280;27023;42.680;23.132;2022-12-07T05:56:24;91966.66;;;5.29;100.00
12195;BME280;27023;42.680;23.132;2022-12-07T05:58:52;91965.00;;;5.25;100.00
12195;BME280;27023;42.680;23.132;2022-12-07T06:01:37;91965.44;;;5.27;100.00
12195;BME280;27023;42.680;23.132;2022-12-07T06:04:04;91969.41;;;5.33;100.00
12195;BME280;27023;42.680;23.132;2022-12-07T06:06:30;91962.13;;;5.09;100.00
12195;BME280;27023;42.680;23.132;2022-12-07T06:08:57;91962.31;;;5.33;100.00
12195;BME280;27023;42.680;23.132;2022-12-07T06:11:24;91968.03;;;5.56;100.00
12195;BME280;27023;42.680;23.132;2022-12-07T06:14:08;91969.56;;;5.57;100.00
12195;BME280;27023;42.680;23.132;2022-12-07T06:16:34;91980.09;;;5.49;100.00
12195;BME280;27023;42.680;23.132;2022-12-07T06:19:02;91965.94;;;5.50;100.00
12195;BME280;27023;42.680;23.132;2022-12-07T06:21:29;91969.88;;;5.56;100.00
12195;BME280;27023;42.680;23.132;2022-12-07T06:23:56;91967.91;;;5.53;100.00
12195;BME280;27023;42.680;23.132;2022-12-07T06:26:22;91976.19;;;5.55;100.00
12195;BME280;27023;42.680;23.132;2022-12-07T06:28:49;91974.81;;;5.57;100.00
12195;BME280;27023;42.680;23.132;2022-12-07T06:31:16;91974.63;;;5.62;100.00
12195;BME280;27023;42.680;23.132;2022-12-07T06:33:42;91982.19;;;5.26;100.00
12195;BME280;27023;42.680;23.132;2022-12-07T06:36:10;91995.91;;;5.52;100.00
12195;BME280;27023;42.680;23.132;2022-12-07T06:38:38;91991.34;;;5.70;100.00
12195;BME280;27023;42.680;23.132;2022-12-07T06:41:04;91992.03;;;5.79;100.00
12195;BME280;27023;42.680;23.132;2022-12-07T06:43:31;91997.22;;;5.88;100.00
12195;BME280;27023;42.680;23.132;2022-12-07T06:45:58;91997.19;;;5.67;100.00
12195;BME280;27023;42.680;23.132;2022-12-07T06:48:25;91994.88;;;5.45;100.00
12195;BME280;27023;42.680;23.132;2022-12-07T06:50:52;91988.41;;;5.71;100.00
12195;BME280;27023;42.680;23.132;2022-12-07T06:53:20;91991.34;;;5.70;100.00
12195;BME280;27023;42.680;23.132;2022-12-07T06:55:47;91990.63;;;5.90;100.00
12195;BME280;27023;42.680;23.132;2022-12-07T06:58:13;91983.94;;;6.01;100.00
12195;BME280;27023;42.680;23.132;2022-12-07T07:00:40;91978.13;;;5.96;100.00
12195;BME280;27023;42.680;23.132;2022-12-07T07:03:07;91990.41;;;6.04;100.00
12195;BME280;27023;42.680;23.132;2022-12-07T07:05:33;91994.47;;;5.84;100.00
12195;BME280;27023;42.680;23.132;2022-12-07T07:08:00;91995.63;;;5.45;100.00
12195;BME280;27023;42.680;23.132;2022-12-07T07:10:29;91992.38;;;5.78;100.00
12195;BME280;27023;42.680;23.132;2022-12-07T07:12:56;92002.63;;;5.91;100.00
12195;BME280;27023;42.680;23.132;2022-12-07T07:15:22;91998.31;;;5.95;100.00
12195;BME280;27023;42.680;23.132;2022-12-07T07:17:49;91983.50;;;5.99;100.00
12195;BME280;27023;42.680;23.132;2022-12-07T07:20:16;91995.44;;;6.09;100.00
12195;BME280;27023;42.680;23.132;2022-12-07T07:22:43;91988.22;;;6.06;100.00
12195;BME280;27023;42.680;23.132;2022-12-07T07:25:09;91991.03;;;6.01;100.00
12195;BME280;27023;42.680;23.132;2022-12-07T07:27:37;91984.75;;;5.93;100.00
12195;BME280;27023;42.680;23.132;2022-12-07T07:30:05;91990.44;;;5.66;100.00
12195;BME280;27023;42.680;23.132;2022-12-07T07:32:32;91998.75;;;5.89;100.00
12195;BME280;27023;42.680;23.132;2022-12-07T07:34:59;91995.66;;;5.66;100.00
12195;BME280;27023;42.680;23.132;2022-12-07T07:37:26;91998.31;;;5.87;100.00
12195;BME280;27023;42.680;23.132;2022-12-07T07:39:53;91996.66;;;6.12;100.00
12195;BME280;27023;42.680;23.132;2022-12-07T07:42:19;91995.59;;;5.54;100.00
12195;BME280;27023;42.680;23.132;2022-12-07T07:44:47;92002.31;;;5.84;100.00
12195;BME280;27023;42.680;23.132;2022-12-07T07:47:14;92003.16;;;6.05;100.00
12195;BME280;27023;42.680;23.132;2022-12-07T07:49:41;91998.50;;;6.11;100.00
12195;BME280;27023;42.680;23.132;2022-12-07T07:52:07;91990.59;;;6.20;100.00
12195;BME280;27023;42.680;23.132;2022-12-07T07:54:34;91993.50;;;6.39;100.00
12195;BME280;27023;42.680;23.132;2022-12-07T07:57:01;91994.81;;;6.45;100.00
12195;BME280;27023;42.680;23.132;2022-12-07T07:59:27;91988.81;;;6.45;100.00
12195;BME280;27023;42.680;23.132;2022-12-07T08:01:55;91991.41;;;6.65;100.00
12195;BME280;27023;42.680;23.132;2022-12-07T08:04:22;91987.91;;;6.61;100.00
12195;BME280;27023;42.680;23.132;2022-12-07T08:06:49;91978.97;;;6.62;100.00
12195;BME280;27023;42.680;23.132;2022-12-07T08:09:16;91981.50;;;6.38;100.00
12195;BME280;27023;42.680;23.132;2022-12-07T08:11:42;91986.25;;;6.03;100.00
12195;BME280;27023;42.680;23.132;2022-12-07T08:14:10;91978.94;;;6.29;100.00
12195;BME280;27023;42.680;23.132;2022-12-07T08:16:37;91989.75;;;6.28;100.00
12195;BME280;27023;42.680;23.132;2022-12-07T08:19:05;91991.66;;;6.19;100.00
12195;BME280;27023;42.680;23.132;2022-12-07T08:21:32;91993.19;;;6.20;100.00
12195;BME280;27023;42.680;23.132;2022-12-07T08:23:58;92003.28;;;6.30;100.00
12195;BME280;27023;42.680;23.132;2022-12-07T08:26:25;91996.56;;;6.41;100.00
12195;BME280;27023;42.680;23.132;2022-12-07T08:28:52;92006.34;;;6.11;100.00
12195;BME280;27023;42.680;23.132;2022-12-07T08:31:19;91993.19;;;6.20;100.00
12195;BME280;27023;42.680;23.132;2022-12-07T08:33:46;91992.44;;;5.98;100.00
12195;BME280;27023;42.680;23.132;2022-12-07T08:36:15;91992.06;;;6.09;100.00
12195;BME280;27023;42.680;23.132;2022-12-07T08:38:42;91987.75;;;6.25;100.00
12195;BME280;27023;42.680;23.132;2022-12-07T08:41:09;91982.53;;;6.25;100.00
12195;BME280;27023;42.680;23.132;2022-12-07T08:43:36;91990.81;;;6.81;100.00
12195;BME280;27023;42.680;23.132;2022-12-07T08:46:10;91991.63;;;7.06;100.00
12195;BME280;27023;42.680;23.132;2022-12-07T08:48:41;91992.19;;;7.11;100.00
12195;BME280;27023;42.680;23.132;2022-12-07T08:51:10;91981.72;;;7.36;100.00
12195;BME280;27023;42.680;23.132;2022-12-07T08:53:39;91985.22;;;7.40;100.00
12195;BME280;27023;42.680;23.132;2022-12-07T08:56:07;91986.72;;;7.04;100.00
12195;BME280;27023;42.680;23.132;2022-12-07T08:58:35;91985.00;;;7.20;100.00
12195;BME280;27023;42.680;23.132;2022-12-07T09:01:02;91969.09;;;6.80;100.00
12195;BME280;27023;42.680;23.132;2022-12-07T09:03:30;91973.19;;;7.26;100.00
12195;BME280;27023;42.680;23.132;2022-12-07T09:05:57;91962.53;;;7.44;100.00
12195;BME280;27023;42.680;23.132;2022-12-07T09:08:31;91960.94;;;6.94;100.00
12195;BME280;27023;42.680;23.132;2022-12-07T09:11:00;91958.13;;;7.36;100.00
12195;BME280;27023;42.680;23.132;2022-12-07T09:13:27;91955.09;;;7.46;100.00
12195;BME280;27023;42.680;23.132;2022-12-07T09:15:54;91953.22;;;7.58;100.00
12195;BME280;27023;42.680;23.132;2022-12-07T09:18:20;91950.91;;;7.69;100.00
12195;BME280;27023;42.680;23.132;2022-12-07T09:20:47;91954.81;;;7.87;100.00
12195;BME280;27023;42.680;23.132;2022-12-07T09:23:14;91948.41;;;8.13;100.00
12195;BME280;27023;42.680;23.132;2022-12-07T09:25:40;91947.69;;;8.40;100.00
12195;BME280;27023;42.680;23.132;2022-12-07T09:28:08;91951.22;;;8.60;100.00
12195;BME280;27023;42.680;23.132;2022-12-07T09:30:35;91944.00;;;8.17;100.00
12195;BME280;27023;42.680;23.132;2022-12-07T09:33:02;91955.50;;;8.24;100.00
12195;BME280;27023;42.680;23.132;2022-12-07T09:35:28;91956.38;;;8.56;100.00
12195;BME280;27023;42.680;23.132;2022-12-07T09:37:55;91954.09;;;8.55;100.00
12195;BME280;27023;42.680;23.132;2022-12-07T09:40:23;91947.03;;;8.87;100.00
12195;BME280;27023;42.680;23.132;2022-12-07T09:42:52;91939.88;;;9.15;100.00
12195;BME280;27023;42.680;23.132;2022-12-07T09:45:23;91943.94;;;9.29;100.00
12195;BME280;27023;42.680;23.132;2022-12-07T09:47:51;91943.75;;;9.37;100.00
12195;BME280;27023;42.680;23.132;2022-12-07T09:50:20;91937.19;;;9.63;100.00
12195;BME280;27023;42.680;23.132;2022-12-07T09:52:48;91940.69;;;9.51;100.00
12195;BME280;27023;42.680;23.132;2022-12-07T09:55:19;91943.41;;;9.54;100.00
12195;BME280;27023;42.680;23.132;2022-12-07T09:57:49;91932.47;;;9.87;100.00
12195;BME280;27023;42.680;23.132;2022-12-07T10:00:18;91936.59;;;10.04;100.00
12195;BME280;27023;42.680;23.132;2022-12-07T10:02:50;91929.03;;;10.03;100.00
12195;BME280;27023;42.680;23.132;2022-12-07T10:05:22;91932.66;;;10.14;100.00
12195;BME280;27023;42.680;23.132;2022-12-07T10:07:50;91930.19;;;10.21;100.00
12195;BME280;27023;42.680;23.132;2022-12-07T10:10:20;91926.59;;;10.29;100.00
12195;BME280;27023;42.680;23.132;2022-12-07T10:12:55;91928.75;;;10.08;100.00
12195;BME280;27023;42.680;23.132;2022-12-07T10:15:22;91920.31;;;9.99;100.00
12195;BME280;27023;42.680;23.132;2022-12-07T10:17:51;91917.53;;;9.92;100.00
12195;BME280;27023;42.680;23.132;2022-12-07T10:20:21;91911.22;;;10.15;100.00
12195;BME280;27023;42.680;23.132;2022-12-07T10:22:56;91913.38;;;10.10;100.00
12195;BME280;27023;42.680;23.132;2022-12-07T10:25:27;91914.38;;;9.51;100.00
12195;BME280;27023;42.680;23.132;2022-12-07T10:28:02;91909.50;;;9.02;100.00
12195;BME280;27023;42.680;23.132;2022-12-07T10:30:47;91896.34;;;9.02;100.00
12195;BME280;27023;42.680;23.132;2022-12-07T10:33:28;91903.69;;;9.44;100.00
12195;BME280;27023;42.680;23.132;2022-12-07T10:35:55;91899.66;;;9.66;100.00
12195;BME280;27023;42.680;23.132;2022-12-07T10:38:21;91904.59;;;9.67;100.00
12195;BME280;27023;42.680;23.132;2022-12-07T10:41:03;91900.09;;;9.68;100.00
12195;BME280;27023;42.680;23.132;2022-12-07T10:43:29;91900.53;;;9.70;100.00
12195;BME280;27023;42.680;23.132;2022-12-07T10:46:19;91903.66;;;9.75;100.00
12195;BME280;27023;42.680;23.132;2022-12-07T10:48:56;91896.09;;;9.74;100.00
12195;BME280;27023;42.680;23.132;2022-12-07T10:51:28;91886.84;;;9.64;100.00
12195;BME280;27023;42.680;23.132;2022-12-07T10:54:03;91883.09;;;9.65;100.00
12195;BME280;27023;42.680;23.132;2022-12-07T10:56:48;91879.06;;;9.68;100.00
12195;BME280;27023;42.680;23.132;2022-12-07T10:59:35;91871.75;;;9.61;100.00
12195;BME280;27023;42.680;23.132;2022-12-07T11:02:20;91876.16;;;9.57;100.00
12195;BME280;27023;42.680;23.132;2022-12-07T11:04:59;91861.06;;;9.54;100.00
12195;BME280;27023;42.680;23.132;2022-12-07T11:07:43;91861.06;;;9.54;100.00
12195;BME280;27023;42.680;23.132;2022-12-07T11:10:17;91870.75;;;9.50;100.00
12195;BME280;27023;42.680;23.132;2022-12-07T11:15:49;91845.25;;;9.35;100.00
12195;BME280;27023;42.680;23.132;2022-12-07T11:18:25;91840.75;;;9.70;100.00
12195;BME280;27023;42.680;23.132;2022-12-07T11:21:04;91844.97;;;9.75;100.00
12195;BME280;27023;42.680;23.132;2022-12-07T11:23:40;91842.00;;;10.15;100.00
12195;BME280;27023;42.680;23.132;2022-12-07T11:26:17;91841.31;;;10.37;100.00
12195;BME280;27023;42.680;23.132;2022-12-07T11:28:58;91845.34;;;10.31;100.00
12195;BME280;27023;42.680;23.132;2022-12-07T11:31:36;91837.31;;;10.43;100.00
12195;BME280;27023;42.680;23.132;2022-12-07T11:34:10;91837.53;;;10.58;100.00
12195;BME280;27023;42.680;23.132;2022-12-07T11:36:44;91840.34;;;10.68;100.00
12195;BME280;27023;42.680;23.132;2022-12-07T11:39:22;91828.41;;;10.52;100.00
12195;BME280;27023;42.680;23.132;2022-12-07T11:41:56;91832.56;;;10.14;100.00
12195;BME280;27023;42.680;23.132;2022-12-07T11:44:32;91835.91;;;10.30;100.00
12195;BME280;27023;42.680;23.132;2022-12-07T11:47:02;91834.88;;;10.35;100.00
12195;BME280;27023;42.680;23.132;2022-12-07T11:49:40;91829.66;;;10.38;100.00
12195;BME280;27023;42.680;23.132;2022-12-07T11:52:20;91836.31;;;10.32;100.00
12195;BME280;27023;42.680;23.132;2022-12-07T11:54:50;91839.19;;;10.43;100.00
12195;BME280;27023;42.680;23.132;2022-12-07T11:57:22;91831.03;;;9.55;100.00
12195;BME280;27023;42.680;23.132;2022-12-07T11:59:52;91820.13;;;9.72;100.00
12195;BME280;27023;42.680;23.132;2022-12-07T12:02:26;91824.81;;;10.02;100.00
12195;BME280;27023;42.680;23.132;2022-12-07T12:04:59;91824.13;;;10.05;100.00
12195;BME280;27023;42.680;23.132;2022-12-07T12:07:31;91817.81;;;10.09;100.00
12195;BME280;27023;42.680;23.132;2022-12-07T12:10:00;91808.03;;;10.29;100.00
12195;BME280;27023;42.680;23.132;2022-12-07T12:13:05;91806.13;;;9.87;100.00
12195;BME280;27023;42.680;23.132;2022-12-07T12:15:53;91796.69;;;10.06;100.00
12195;BME280;27023;42.680;23.132;2022-12-07T12:18:33;91795.16;;;10.05;100.00
12195;BME280;27023;42.680;23.132;2022-12-07T12:21:04;91799.16;;;10.18;100.00
12195;BME280;27023;42.680;23.132;2022-12-07T12:23:40;91802.66;;;10.22;100.00
12195;BME280;27023;42.680;23.132;2022-12-07T12:26:15;91795.88;;;10.21;100.00
12195;BME280;27023;42.680;23.132;2022-12-07T12:28:50;91790.00;;;10.31;100.00
12195;BME280;27023;42.680;23.132;2022-12-07T12:31:32;91786.28;;;10.32;100.00
12195;BME280;27023;42.680;23.132;2022-12-07T12:34:02;91786.09;;;10.22;100.00
12195;BME280;27023;42.680;23.132;2022-12-07T12:36:44;91788.16;;;10.32;100.00
12195;BME280;27023;42.680;23.132;2022-12-07T12:39:14;91790.06;;;10.35;100.00
12195;BME280;27023;42.680;23.132;2022-12-07T12:41:53;91791.19;;;10.34;100.00
12195;BME280;27023;42.680;23.132;2022-12-07T12:45:18;91785.03;;;10.26;100.00
12195;BME280;27023;42.680;23.132;2022-12-07T12:47:55;91779.47;;;10.31;100.00
12195;BME280;27023;42.680;23.132;2022-12-07T12:50:24;91779.94;;;10.37;100.00
12195;BME280;27023;42.680;23.132;2022-12-07T12:53:14;91783.81;;;10.01;100.00
12195;BME280;27023;42.680;23.132;2022-12-07T12:56:13;91784.63;;;10.05;100.00
12195;BME280;27023;42.680;23.132;2022-12-07T12:58:47;91782.53;;;10.14;100.00
12195;BME280;27023;42.680;23.132;2022-12-07T13:01:39;91771.59;;;10.12;100.00
12195;BME280;27023;42.680;23.132;2022-12-07T13:07:13;91778.19;;;10.02;100.00
12195;BME280;27023;42.680;23.132;2022-12-07T13:09:59;91774.22;;;10.12;100.00
12195;BME280;27023;42.680;23.132;2022-12-07T13:12:29;91777.28;;;10.14;100.00
12195;BME280;27023;42.680;23.132;2022-12-07T13:14:57;91772.81;;;10.18;100.00
12195;BME280;27023;42.680;23.132;2022-12-07T13:17:57;91778.38;;;10.13;100.00